createdAt,value
2023-05-08T00:00:18.920Z,2.00
2023-05-08T00:02:49.411Z,2.17
2023-05-08T00:05:18.645Z,1.80
2023-05-08T00:07:47.716Z,2.00
2023-05-08T00:10:16.946Z,1.88
2023-05-08T00:12:45.986Z,1.77
2023-05-08T00:15:15.162Z,1.95
2023-05-08T00:17:44.454Z,2.38
2023-05-08T00:20:15.698Z,1.92
2023-05-08T00:22:44.752Z,2.03
2023-05-08T00:25:13.708Z,1.77
2023-05-08T00:27:43.148Z,2.10
2023-05-08T00:30:13.362Z,1.73
2023-05-08T00:32:43.137Z,2.20
2023-05-08T00:35:12.597Z,1.88
2023-05-08T00:37:43.880Z,1.90
2023-05-08T00:40:13.978Z,1.85
2023-05-08T00:42:43.485Z,1.90
2023-05-08T00:45:12.928Z,1.80
2023-05-08T00:47:42.533Z,2.17
2023-05-08T00:50:12.435Z,1.70
2023-05-08T00:52:43.148Z,2.25
2023-05-08T00:55:12.418Z,1.73
2023-05-08T00:57:41.808Z,1.73
2023-05-08T01:00:12.362Z,2.20
2023-05-08T01:02:42.039Z,2.05
2023-05-08T01:05:11.269Z,1.95
2023-05-08T01:07:40.265Z,1.90
2023-05-08T01:10:11.844Z,1.75
2023-05-08T01:12:55.640Z,1.70
2023-05-08T01:15:31.046Z,2.15
2023-05-08T01:18:11.827Z,2.53
2023-05-08T01:21:20.263Z,2.00
2023-05-08T01:24:09.643Z,1.75
2023-05-08T01:27:14.658Z,1.70
2023-05-08T01:30:24.799Z,1.88
2023-05-08T01:33:02.748Z,2.10
2023-05-08T01:35:41.225Z,2.10
2023-05-08T01:38:16.462Z,1.77
2023-05-08T01:40:55.082Z,1.92
2023-05-08T01:43:31.297Z,2.08
2023-05-08T01:46:08.045Z,1.90
2023-05-08T01:48:49.526Z,1.60
2023-05-08T01:51:22.966Z,2.00
2023-05-08T01:53:57.109Z,2.00
2023-05-08T01:56:30.053Z,2.00
2023-05-08T01:59:02.112Z,1.80
2023-05-08T02:01:34.789Z,1.75
2023-05-08T02:04:08.286Z,1.65
2023-05-08T02:06:41.716Z,1.80
2023-05-08T02:09:12.063Z,2.00
2023-05-08T02:11:45.200Z,1.83
2023-05-08T02:14:22.409Z,1.88
2023-05-08T02:16:53.953Z,1.77
2023-05-08T02:19:26.870Z,1.83
2023-05-08T02:21:59.870Z,1.90
2023-05-08T02:24:29.234Z,1.90
2023-05-08T02:27:00.484Z,1.95
2023-05-08T02:29:30.612Z,1.88
2023-05-08T02:32:02.683Z,1.88
2023-05-08T02:34:33.840Z,1.80
2023-05-08T02:37:05.026Z,1.98
2023-05-08T02:39:36.532Z,2.22
2023-05-08T02:42:06.379Z,2.13
2023-05-08T02:44:35.680Z,2.20
2023-05-08T02:47:16.195Z,2.28
2023-05-08T02:49:53.391Z,2.00
2023-05-08T02:52:29.879Z,1.95
2023-05-08T02:55:03.133Z,2.30
2023-05-08T02:57:40.987Z,2.00
2023-05-08T03:00:19.006Z,2.40
2023-05-08T03:02:57.062Z,2.08
2023-05-08T03:05:38.815Z,1.90
2023-05-08T03:08:15.322Z,2.00
2023-05-08T03:10:48.391Z,2.00
2023-05-08T03:13:20.903Z,2.60
2023-05-08T03:15:56.651Z,1.95
2023-05-08T03:18:32.290Z,2.00
2023-05-08T03:21:04.626Z,2.08
2023-05-08T03:23:37.213Z,2.10
2023-05-08T03:26:07.255Z,2.30
2023-05-08T03:28:40.415Z,1.88
2023-05-08T03:31:11.526Z,2.13
2023-05-08T03:34:03.697Z,1.60
2023-05-08T03:36:35.618Z,2.30
2023-05-08T03:39:05.986Z,2.00
2023-05-08T03:41:35.714Z,2.20
2023-05-08T03:44:05.537Z,2.25
2023-05-08T03:46:38.143Z,1.70
2023-05-08T03:49:10.245Z,2.00
2023-05-08T03:51:42.677Z,2.10
2023-05-08T03:54:12.064Z,2.15
2023-05-08T03:56:41.228Z,2.28
2023-05-08T03:59:17.268Z,1.75
2023-05-08T04:01:55.555Z,2.13
2023-05-08T04:04:35.073Z,2.30
2023-05-08T04:07:11.822Z,2.10
2023-05-08T04:09:56.899Z,2.10
2023-05-08T04:12:38.609Z,2.45
2023-05-08T04:20:04.769Z,2.35
2023-05-08T04:22:36.877Z,1.80
2023-05-08T04:25:09.213Z,2.30
2023-05-08T04:27:43.737Z,2.25
2023-05-08T04:30:17.580Z,2.50
2023-05-08T04:32:58.054Z,2.15
2023-05-08T04:35:28.093Z,2.08
2023-05-08T04:38:00.485Z,2.10
2023-05-08T04:40:29.916Z,2.53
2023-05-08T04:43:00.529Z,2.20
2023-05-08T04:45:30.041Z,2.42
2023-05-08T04:47:59.436Z,2.47
2023-05-08T04:50:28.772Z,1.98
2023-05-08T04:52:59.672Z,2.20
2023-05-08T04:55:29.105Z,2.28
2023-05-08T04:57:58.454Z,2.00
2023-05-08T05:00:28.020Z,2.05
2023-05-08T05:02:57.821Z,2.10
2023-05-08T05:05:30.099Z,2.47
2023-05-08T05:08:01.077Z,2.10
2023-05-08T05:10:30.607Z,2.10
2023-05-08T05:12:59.911Z,2.00
2023-05-08T05:15:29.552Z,2.30
2023-05-08T05:17:59.354Z,3.92
2023-05-08T05:20:29.067Z,2.40
2023-05-08T05:22:58.564Z,1.95
2023-05-08T05:25:29.800Z,2.10
2023-05-08T05:27:59.655Z,2.22
2023-05-08T05:30:29.286Z,2.40
2023-05-08T05:32:59.446Z,2.50
2023-05-08T05:35:29.063Z,2.17
2023-05-08T05:37:59.576Z,2.38
2023-05-08T05:40:30.637Z,2.97
2023-05-08T05:43:00.352Z,2.00
2023-05-08T05:45:32.555Z,2.20
2023-05-08T05:48:03.692Z,2.10
2023-05-08T05:50:33.877Z,2.08
2023-05-08T05:53:03.234Z,1.80
2023-05-08T05:55:34.454Z,2.00
2023-05-08T05:58:04.617Z,2.33
2023-05-08T06:00:35.207Z,2.33
2023-05-08T06:03:05.829Z,2.08
2023-05-08T06:05:35.556Z,2.40
2023-05-08T06:08:05.878Z,2.47
2023-05-08T06:10:41.285Z,2.28
2023-05-08T06:13:11.422Z,2.30
2023-05-08T06:15:40.738Z,2.15
2023-05-08T06:18:10.667Z,2.33
2023-05-08T06:20:40.640Z,2.28
2023-05-08T06:23:10.175Z,2.20
2023-05-08T06:25:40.597Z,2.17
2023-05-08T06:28:11.951Z,1.93
2023-05-08T06:30:41.251Z,2.80
2023-05-08T06:33:11.466Z,2.13
2023-05-08T06:35:40.857Z,2.05
2023-05-08T06:38:10.575Z,2.20
2023-05-08T06:40:44.498Z,2.17
2023-05-08T06:43:14.224Z,2.17
2023-05-08T06:45:45.051Z,2.10
2023-05-08T06:48:14.458Z,2.40
2023-05-08T06:50:43.603Z,2.40
2023-05-08T06:53:12.728Z,2.30
2023-05-08T06:55:45.587Z,2.40
2023-05-08T06:58:15.385Z,2.70
2023-05-08T07:00:44.749Z,2.47
2023-05-08T07:03:15.085Z,2.00
2023-05-08T07:05:44.383Z,2.28
2023-05-08T07:08:16.470Z,1.85
2023-05-08T07:10:47.138Z,2.25
2023-05-08T07:13:22.292Z,2.33
2023-05-08T07:15:51.809Z,2.30
2023-05-08T07:18:21.115Z,2.28
2023-05-08T07:20:52.575Z,2.30
2023-05-08T07:23:21.824Z,2.80
2023-05-08T07:25:53.195Z,2.33
2023-05-08T07:28:22.747Z,2.60
2023-05-08T07:30:55.149Z,2.20
2023-05-08T07:33:24.709Z,2.40
2023-05-08T07:35:54.216Z,2.60
2023-05-08T07:38:23.809Z,2.63
2023-05-08T07:40:57.297Z,2.97
2023-05-08T07:43:32.799Z,2.60
2023-05-08T07:46:04.504Z,2.53
2023-05-08T07:48:35.351Z,3.13
2023-05-08T07:51:04.831Z,3.30
2023-05-08T07:53:59.604Z,2.70
2023-05-08T07:56:31.415Z,3.15
2023-05-08T07:59:00.964Z,2.80
2023-05-08T08:01:32.210Z,2.60
2023-05-08T08:04:02.534Z,2.72
2023-05-08T08:06:32.134Z,2.47
2023-05-08T08:09:03.963Z,2.40
2023-05-08T08:11:39.872Z,2.63
2023-05-08T08:14:09.367Z,1.90
2023-05-08T08:16:42.728Z,2.15
2023-05-08T08:19:16.334Z,2.38
2023-05-08T08:21:46.397Z,2.45
2023-05-08T08:24:15.443Z,2.40
2023-05-08T08:26:46.582Z,2.22
2023-05-08T08:29:15.729Z,2.47
2023-05-08T08:31:45.020Z,2.50
2023-05-08T08:34:14.647Z,2.60
2023-05-08T08:36:44.468Z,2.38
2023-05-08T08:39:15.333Z,2.08
2023-05-08T08:41:46.347Z,2.40
2023-05-08T08:44:23.693Z,2.20
2023-05-08T08:46:54.117Z,2.60
2023-05-08T08:49:29.294Z,1.90
2023-05-08T08:52:03.145Z,2.38
2023-05-08T08:54:36.366Z,2.17
2023-05-08T08:57:09.159Z,2.63
2023-05-08T08:59:40.021Z,2.25
2023-05-08T09:02:18.034Z,2.38
2023-05-08T09:04:51.860Z,2.10
2023-05-08T09:07:25.531Z,2.17
2023-05-08T09:10:27.010Z,2.97
2023-05-08T09:12:58.367Z,2.08
2023-05-08T09:15:27.835Z,2.10
2023-05-08T09:17:57.450Z,2.10
2023-05-08T09:20:30.376Z,2.30
2023-05-08T09:23:03.084Z,2.30
2023-05-08T09:25:47.104Z,2.03
2023-05-08T09:28:22.950Z,2.20
2023-05-08T09:30:56.550Z,1.67
2023-05-08T09:33:27.864Z,2.25
2023-05-08T09:36:00.903Z,1.98
2023-05-08T09:38:34.810Z,2.28
2023-05-08T09:41:12.678Z,2.28
2023-05-08T09:44:01.121Z,2.00
2023-05-08T09:46:31.241Z,2.38
2023-05-08T09:49:01.960Z,1.98
2023-05-08T09:51:33.013Z,2.17
2023-05-08T09:54:05.976Z,2.05
2023-05-08T09:56:37.308Z,1.83
2023-05-08T09:59:27.018Z,2.15
2023-05-08T10:01:58.197Z,2.17
2023-05-08T10:04:35.927Z,2.67
2023-05-08T10:07:05.843Z,1.90
2023-05-08T10:09:47.094Z,2.00
2023-05-08T10:12:22.539Z,2.28
2023-05-08T10:14:54.333Z,2.40
2023-05-08T10:17:29.146Z,3.67
2023-05-08T10:20:02.285Z,2.05
2023-05-08T10:22:36.865Z,2.20
2023-05-08T10:25:15.762Z,2.30
2023-05-08T10:27:52.639Z,2.25
2023-05-08T10:30:26.627Z,2.28
2023-05-08T10:32:59.432Z,2.70
2023-05-08T10:35:31.773Z,2.22
2023-05-08T10:38:06.492Z,2.00
2023-05-08T10:40:42.489Z,2.30
2023-05-08T10:43:13.034Z,2.40
2023-05-08T10:45:44.469Z,2.28
2023-05-08T10:48:25.134Z,2.42
2023-05-08T10:51:02.692Z,2.65
2023-05-08T10:53:40.236Z,2.22
2023-05-08T10:56:10.155Z,2.42
2023-05-08T10:58:40.500Z,2.60
2023-05-08T11:02:08.546Z,2.28
2023-05-08T11:04:44.596Z,3.15
2023-05-08T11:07:14.128Z,2.50
2023-05-08T11:09:48.630Z,2.20
2023-05-08T11:12:22.687Z,2.58
2023-05-08T11:15:06.626Z,2.25
2023-05-08T11:17:36.112Z,2.00
2023-05-08T11:20:10.524Z,2.25
2023-05-08T11:22:49.805Z,2.53
2023-05-08T11:25:37.698Z,2.20
2023-05-08T11:28:11.645Z,2.65
2023-05-08T11:30:41.586Z,2.30
2023-05-08T11:33:21.072Z,3.20
2023-05-08T11:36:03.040Z,3.53
2023-05-08T11:42:37.308Z,3.05
2023-05-08T11:45:08.460Z,2.53
2023-05-08T11:47:40.588Z,2.20
2023-05-08T11:50:11.509Z,2.15
2023-05-08T11:52:46.514Z,2.65
2023-05-08T11:55:15.964Z,3.28
2023-05-08T11:57:48.494Z,2.08
2023-05-08T12:00:18.750Z,2.10
2023-05-08T12:02:48.299Z,2.72
2023-05-08T12:05:31.861Z,2.13
2023-05-08T12:10:31.884Z,2.88
2023-05-08T12:13:16.940Z,2.30
2023-05-08T12:15:54.657Z,2.30
2023-05-08T12:18:28.716Z,2.40
2023-05-08T12:21:00.241Z,2.53
2023-05-08T12:23:37.200Z,2.33
2023-05-08T12:26:07.173Z,2.30
2023-05-08T12:28:42.052Z,3.03
2023-05-08T12:31:24.353Z,2.40
2023-05-08T12:36:23.536Z,2.03
2023-05-08T12:38:54.956Z,2.55
2023-05-08T12:41:26.664Z,2.15
2023-05-08T12:43:57.322Z,2.50
2023-05-08T12:46:28.196Z,2.17
2023-05-08T12:49:02.820Z,2.42
2023-05-08T12:51:32.675Z,2.10
2023-05-08T12:54:03.998Z,2.50
2023-05-08T12:56:37.137Z,2.22
2023-05-08T12:59:06.368Z,1.92
2023-05-08T13:01:35.873Z,2.10
2023-05-08T13:04:09.114Z,1.90
2023-05-08T13:06:40.126Z,1.80
2023-05-08T13:09:23.359Z,1.80
2023-05-08T13:11:53.375Z,2.08
2023-05-08T13:14:22.990Z,1.80
2023-05-08T13:16:55.432Z,2.20
2023-05-08T13:19:25.260Z,1.73
2023-05-08T13:21:58.204Z,1.98
2023-05-08T13:24:29.245Z,1.90
2023-05-08T13:26:59.008Z,2.38
2023-05-08T13:29:28.605Z,2.22
2023-05-08T13:32:09.377Z,2.33
2023-05-08T13:34:47.304Z,1.88
2023-05-08T13:37:24.385Z,1.88
2023-05-08T13:39:55.477Z,1.85
2023-05-08T13:42:25.401Z,2.10
2023-05-08T13:44:54.699Z,1.70
2023-05-08T13:47:24.590Z,2.30
2023-05-08T13:49:54.166Z,1.73
2023-05-08T13:52:25.325Z,1.83
2023-05-08T13:54:59.469Z,2.13
2023-05-08T13:57:28.887Z,2.10
2023-05-08T13:59:58.313Z,1.90
2023-05-08T14:02:28.087Z,2.25
2023-05-08T14:04:57.669Z,2.10
2023-05-08T14:07:28.221Z,1.88
2023-05-08T14:09:58.879Z,1.83
2023-05-08T14:12:28.966Z,2.40
2023-05-08T14:15:00.795Z,2.28
2023-05-08T14:17:34.319Z,1.90
2023-05-08T14:20:06.880Z,1.70
2023-05-08T14:22:36.803Z,1.98
2023-05-08T14:25:09.794Z,1.95
2023-05-08T14:27:39.605Z,2.13
2023-05-08T14:30:11.987Z,2.22
2023-05-08T14:32:46.813Z,1.90
2023-05-08T14:35:19.584Z,2.20
2023-05-08T14:37:49.261Z,1.98
2023-05-08T14:40:22.055Z,1.98
2023-05-08T14:42:53.075Z,1.70
2023-05-08T14:45:25.381Z,1.90
2023-05-08T14:47:57.392Z,1.70
2023-05-08T14:50:29.987Z,1.80
2023-05-08T14:53:27.724Z,2.10
2023-05-08T14:56:08.014Z,1.90
2023-05-08T14:58:37.418Z,1.95
2023-05-08T15:01:12.883Z,1.80
2023-05-08T15:03:43.099Z,2.03
2023-05-08T15:06:53.284Z,2.20
2023-05-08T15:09:36.296Z,1.70
2023-05-08T15:12:22.507Z,2.40
2023-05-08T15:17:58.650Z,1.85
2023-05-08T15:24:36.199Z,2.03
2023-05-08T15:27:20.417Z,1.75
2023-05-08T15:33:11.730Z,1.83
2023-05-08T15:35:44.153Z,2.10
2023-05-08T15:38:13.673Z,1.40
2023-05-08T15:40:45.316Z,1.77
2023-05-08T15:43:23.935Z,1.70
2023-05-08T15:45:55.897Z,1.95
2023-05-08T15:48:28.900Z,1.90
2023-05-08T15:53:30.693Z,1.88
2023-05-08T15:56:01.202Z,1.83
2023-05-08T15:58:32.552Z,2.00
2023-05-08T16:01:08.851Z,2.35
2023-05-08T16:06:12.550Z,2.30
2023-05-08T16:08:44.058Z,1.77
2023-05-08T16:11:14.036Z,2.00
2023-05-08T16:13:43.779Z,1.88
2023-05-08T16:16:15.152Z,2.20
2023-05-08T16:18:47.045Z,1.90
2023-05-08T16:21:17.028Z,1.95
2023-05-08T16:23:46.646Z,2.15
2023-05-08T16:26:23.057Z,1.70
2023-05-08T16:31:28.147Z,1.65
2023-05-08T16:33:58.931Z,1.83
2023-05-08T16:36:31.829Z,1.85
2023-05-08T16:39:02.540Z,2.03
2023-05-08T16:41:35.955Z,2.00
2023-05-08T16:44:07.918Z,1.90
2023-05-08T16:46:40.949Z,1.83
2023-05-08T16:51:44.529Z,1.95
2023-05-08T16:54:14.498Z,2.33
2023-05-08T16:56:48.534Z,2.08
2023-05-08T16:59:20.429Z,2.20
2023-05-08T17:01:51.447Z,1.90
2023-05-08T17:04:21.965Z,2.10
2023-05-08T17:06:54.202Z,2.05
2023-05-08T17:09:25.413Z,2.22
2023-05-08T17:11:54.745Z,2.00
2023-05-08T17:14:25.145Z,2.00
2023-05-08T17:16:56.915Z,2.10
2023-05-08T17:19:27.363Z,2.03
2023-05-08T17:21:58.954Z,2.67
2023-05-08T17:24:30.921Z,2.40
2023-05-08T17:27:00.831Z,2.83
2023-05-08T17:29:33.811Z,3.08
2023-05-08T17:32:05.218Z,3.17
2023-05-08T17:34:37.183Z,2.83
2023-05-08T17:37:07.838Z,3.13
2023-05-08T17:39:38.644Z,2.85
2023-05-08T17:42:07.870Z,3.33
2023-05-08T17:44:37.384Z,2.60
2023-05-08T17:47:09.263Z,2.75
2023-05-08T17:49:38.755Z,2.78
2023-05-08T17:52:10.301Z,2.20
2023-05-08T17:54:39.438Z,2.55
2023-05-08T17:57:18.076Z,2.72
2023-05-08T17:59:49.629Z,2.75
2023-05-08T18:02:21.114Z,2.58
2023-05-08T18:04:50.502Z,3.60
2023-05-08T18:07:20.238Z,2.65
2023-05-08T18:09:52.216Z,2.22
2023-05-08T18:12:21.771Z,2.40
2023-05-08T18:14:54.091Z,2.20
2023-05-08T18:17:25.034Z,2.58
2023-05-08T18:19:58.772Z,2.45
2023-05-08T18:25:00.729Z,2.40
2023-05-08T18:27:33.583Z,2.30
2023-05-08T18:30:03.654Z,2.38
2023-05-08T18:32:38.570Z,2.35
2023-05-08T18:35:09.053Z,2.55
2023-05-08T18:37:38.995Z,2.55
2023-05-08T18:40:10.158Z,3.10
2023-05-08T18:42:40.722Z,1.92
2023-05-08T18:45:12.130Z,2.40
2023-05-08T18:47:42.835Z,2.42
2023-05-08T18:50:12.538Z,2.70
2023-05-08T18:52:42.271Z,2.35
2023-05-08T18:55:11.989Z,2.53
2023-05-08T18:57:45.864Z,2.20
2023-05-08T19:00:17.626Z,2.50
2023-05-08T19:02:48.809Z,2.30
2023-05-08T19:05:19.023Z,2.70
2023-05-08T19:07:48.353Z,2.20
2023-05-08T19:10:21.167Z,2.50
2023-05-08T19:12:51.075Z,2.50
2023-05-08T19:15:20.619Z,2.38
2023-05-08T19:17:52.930Z,2.70
2023-05-08T19:20:22.614Z,6.00
2023-05-08T19:22:51.875Z,2.70
2023-05-08T19:25:21.229Z,2.25
2023-05-08T19:27:50.944Z,2.67
2023-05-08T19:30:22.854Z,2.80
2023-05-08T19:32:54.206Z,2.80
2023-05-08T19:35:28.951Z,2.95
2023-05-08T19:38:16.348Z,2.75
2023-05-08T19:40:55.362Z,3.15
2023-05-08T19:43:26.801Z,2.90
2023-05-08T19:45:57.005Z,2.67
2023-05-08T19:48:35.412Z,3.78
2023-05-08T19:51:10.972Z,2.88
2023-05-08T19:53:40.959Z,3.15
2023-05-08T19:56:10.370Z,2.70
2023-05-08T19:58:39.822Z,3.40
2023-05-08T20:01:08.916Z,2.72
2023-05-08T20:03:39.512Z,2.78
2023-05-08T20:06:09.152Z,2.53
2023-05-08T20:08:38.721Z,2.13
2023-05-08T20:11:11.793Z,2.78
2023-05-08T20:13:41.401Z,2.95
2023-05-08T20:16:10.823Z,2.58
2023-05-08T20:18:41.871Z,2.40
2023-05-08T20:21:11.244Z,2.78
2023-05-08T20:23:47.120Z,2.50
2023-05-08T20:26:19.103Z,2.38
2023-05-08T20:28:49.183Z,2.88
2023-05-08T20:31:18.582Z,3.10
2023-05-08T20:33:54.369Z,3.60
2023-05-08T20:36:25.505Z,2.95
2023-05-08T20:38:54.983Z,3.38
2023-05-08T20:41:24.278Z,3.25
2023-05-08T20:43:54.203Z,3.05
2023-05-08T20:46:32.338Z,3.45
2023-05-08T20:49:04.158Z,2.50
2023-05-08T20:51:33.947Z,2.90
2023-05-08T20:54:03.173Z,3.22
2023-05-08T20:56:32.412Z,2.60
2023-05-08T20:59:03.047Z,2.50
2023-05-08T21:01:32.545Z,3.35
2023-05-08T21:04:03.578Z,3.05
2023-05-08T21:06:32.815Z,3.00
2023-05-08T21:09:06.492Z,2.45
2023-05-08T21:11:36.305Z,3.20
2023-05-08T21:14:05.647Z,2.65
2023-05-08T21:16:38.373Z,3.03
2023-05-08T21:19:13.143Z,2.63
2023-05-08T21:21:45.840Z,2.35
2023-05-08T21:24:15.658Z,2.85
2023-05-08T21:26:45.452Z,2.80
2023-05-08T21:29:15.104Z,2.70
2023-05-08T21:31:44.246Z,2.88
2023-05-08T21:34:15.584Z,2.40
2023-05-08T21:36:44.707Z,2.88
2023-05-08T21:39:14.925Z,2.55
2023-05-08T21:41:44.579Z,2.88
2023-05-08T21:44:15.452Z,2.85
2023-05-08T21:46:45.304Z,3.00
2023-05-08T21:49:15.840Z,3.00
2023-05-08T21:51:46.240Z,3.13
2023-05-08T21:54:17.827Z,3.67
2023-05-08T21:56:46.894Z,3.20
2023-05-08T21:59:16.055Z,3.30
2023-05-08T22:01:48.454Z,2.65
2023-05-08T22:04:19.348Z,3.22
2023-05-08T22:06:48.582Z,2.75
2023-05-08T22:09:17.972Z,3.20
2023-05-08T22:11:47.289Z,3.35
2023-05-08T22:14:16.646Z,3.53
2023-05-08T22:16:46.362Z,3.50
2023-05-08T22:19:15.941Z,3.30
2023-05-08T22:21:47.257Z,3.15
2023-05-08T22:24:16.917Z,3.10
2023-05-08T22:26:46.050Z,3.47
2023-05-08T22:29:16.678Z,3.08
2023-05-08T22:31:47.442Z,3.78
2023-05-08T22:34:17.773Z,3.38
2023-05-08T22:36:48.404Z,3.28
2023-05-08T22:39:17.536Z,3.22
2023-05-08T22:41:47.500Z,3.53
2023-05-08T22:44:16.770Z,3.45
2023-05-08T22:46:46.138Z,3.45
2023-05-08T22:49:16.260Z,3.00
2023-05-08T22:51:45.864Z,3.30
2023-05-08T22:54:16.304Z,3.38
2023-05-08T22:56:45.786Z,3.42
2023-05-08T22:59:14.738Z,3.13
2023-05-08T23:01:44.066Z,3.17
2023-05-08T23:04:15.742Z,3.90
2023-05-08T23:06:45.463Z,4.30
2023-05-08T23:09:16.173Z,4.88
2023-05-08T23:11:45.371Z,3.70
2023-05-08T23:14:14.584Z,3.58
2023-05-08T23:16:46.294Z,3.80
2023-05-08T23:19:15.347Z,3.50
2023-05-08T23:21:44.530Z,3.65
2023-05-08T23:24:13.541Z,3.55
2023-05-08T23:26:44.623Z,3.40
2023-05-08T23:29:13.955Z,3.78
2023-05-08T23:31:43.295Z,4.15
2023-05-08T23:34:12.514Z,3.80
2023-05-08T23:36:42.288Z,3.40
2023-05-08T23:39:11.520Z,4.40
2023-05-08T23:41:41.044Z,3.88
2023-05-08T23:44:11.716Z,4.13
2023-05-08T23:46:41.085Z,3.72
2023-05-08T23:49:10.407Z,3.75
2023-05-08T23:51:39.647Z,3.55
2023-05-08T23:54:09.106Z,4.50
2023-05-08T23:56:38.180Z,3.90
2023-05-08T23:59:07.805Z,4.13
